createdAt,value
2022-12-03T00:02:12.045Z,-0.76
2022-12-03T00:04:39.911Z,-0.75
2022-12-03T00:07:07.662Z,-0.78
2022-12-03T00:09:36.542Z,-0.76
2022-12-03T00:12:04.819Z,-0.77
2022-12-03T00:14:32.580Z,-0.70
2022-12-03T00:17:01.582Z,-0.72
2022-12-03T00:19:29.574Z,-0.64
2022-12-03T00:21:57.281Z,-0.63
2022-12-03T00:24:24.855Z,-0.68
2022-12-03T00:26:52.568Z,-0.72
2022-12-03T00:29:20.209Z,-0.67
2022-12-03T00:31:47.965Z,-0.65
2022-12-03T00:34:17.125Z,-0.66
2022-12-03T07:20:40.770Z,-0.15
2022-12-03T07:23:08.330Z,-0.13
2022-12-03T07:25:35.935Z,-0.12
2022-12-03T07:28:04.227Z,-0.09
2022-12-03T07:30:31.861Z,-0.08
2022-12-03T07:32:59.451Z,-0.07
2022-12-03T07:35:27.221Z,-0.04
2022-12-03T07:37:56.275Z,-0.09
2022-12-03T07:40:23.842Z,-0.01
2022-12-03T07:42:51.679Z,-0.06
2022-12-03T07:45:19.267Z,-0.02
2022-12-03T07:47:46.838Z,-0.05
2022-12-03T07:50:14.687Z,-0.09
2022-12-03T07:52:42.241Z,-0.05
2022-12-03T07:55:12.154Z,-0.09
2022-12-03T07:57:40.019Z,-0.02
2022-12-03T08:00:08.502Z,-0.07
2022-12-03T08:02:36.178Z,-0.10
2022-12-03T08:05:04.625Z,-0.11
2022-12-03T08:07:32.397Z,-0.06
2022-12-03T08:10:00.267Z,-0.13
2022-12-03T08:12:30.795Z,-0.16
2022-12-03T08:14:58.380Z,-0.10
2022-12-03T08:17:27.291Z,-0.06
2022-12-03T08:19:55.018Z,-0.10
2022-12-03T08:22:22.679Z,-0.07
2022-12-03T08:24:50.223Z,-0.06
2022-12-03T08:27:19.525Z,-0.04
2022-12-03T08:29:48.500Z,-0.05
2022-12-03T08:32:16.142Z,-0.04
2022-12-03T08:34:45.065Z,-0.03
2022-12-03T08:37:16.885Z,-0.03
2022-12-03T08:39:46.341Z,-0.07
2022-12-03T08:42:18.803Z,0.04
2022-12-03T08:44:48.122Z,0.01
2022-12-03T08:47:20.120Z,0.02
2022-12-03T08:49:51.944Z,-0.01
2022-12-03T08:52:20.780Z,-0.02
2022-12-03T08:54:52.556Z,-0.02
2022-12-03T08:57:27.307Z,0.05
2022-12-03T09:00:00.144Z,0.07
2022-12-03T09:02:33.084Z,0.12
2022-12-03T09:05:13.383Z,0.09
2022-12-03T09:07:41.099Z,0.08
2022-12-03T09:10:09.407Z,0.08
2022-12-03T09:12:37.208Z,0.09
2022-12-03T09:15:07.519Z,0.17
2022-12-03T09:17:35.310Z,0.14
2022-12-03T09:20:03.339Z,0.15
2022-12-03T09:22:31.519Z,0.08
2022-12-03T09:24:59.069Z,0.11
2022-12-03T09:27:26.838Z,0.13
2022-12-03T09:29:54.392Z,0.10
2022-12-03T09:32:23.407Z,0.13
2022-12-03T09:34:51.544Z,0.15
2022-12-03T09:37:19.367Z,0.14
2022-12-03T09:39:46.964Z,0.16
2022-12-03T09:42:15.456Z,0.15
2022-12-03T09:44:43.721Z,0.17
2022-12-03T09:47:11.642Z,0.07
2022-12-03T09:49:41.837Z,0.10
2022-12-03T09:52:16.956Z,0.09
2022-12-03T09:54:47.567Z,0.14
2022-12-03T09:57:16.069Z,0.16
2022-12-03T09:59:43.651Z,0.24
2022-12-03T10:02:19.958Z,0.28
2022-12-03T10:04:49.486Z,0.27
2022-12-03T10:07:17.260Z,0.23
2022-12-03T10:09:45.283Z,0.11
2022-12-03T10:12:14.033Z,0.12
2022-12-03T10:14:42.845Z,0.14
2022-12-03T10:17:11.957Z,0.15
2022-12-03T10:19:39.713Z,0.26
2022-12-03T10:22:09.090Z,0.21
2022-12-03T10:24:37.875Z,0.20
2022-12-03T10:27:21.525Z,0.27
2022-12-03T10:29:55.154Z,0.26
2022-12-03T10:32:26.326Z,0.25
2022-12-03T10:35:08.244Z,0.28
2022-12-03T10:37:37.264Z,0.34
2022-12-03T10:40:07.027Z,0.36
2022-12-03T10:42:36.721Z,0.39
2022-12-03T10:45:16.496Z,0.49
2022-12-03T10:48:01.667Z,0.45
2022-12-03T10:50:29.639Z,0.44
2022-12-03T10:52:58.687Z,0.46
2022-12-03T20:39:18.354Z,-0.78
2022-12-03T20:41:45.966Z,-0.89
2022-12-03T20:44:13.524Z,-0.85
2022-12-03T20:46:41.319Z,-0.89
2022-12-03T20:49:09.148Z,-0.87
2022-12-03T20:51:36.729Z,-0.88
2022-12-03T20:54:04.991Z,-0.93
2022-12-03T20:56:36.724Z,-0.90
2022-12-03T20:59:08.371Z,-0.89
2022-12-03T21:01:36.621Z,-0.85
2022-12-03T21:04:05.906Z,-0.87
2022-12-03T21:06:35.997Z,-0.87
2022-12-03T21:09:05.538Z,-0.87
2022-12-03T21:11:35.262Z,-0.84
2022-12-03T21:14:03.874Z,-0.84
2022-12-03T21:19:21.092Z,-0.83
2022-12-03T21:21:48.750Z,-0.76
2022-12-03T21:24:16.571Z,-0.78
2022-12-03T21:26:45.923Z,-0.80
2022-12-03T21:29:13.533Z,-0.78
2022-12-03T21:31:41.269Z,-0.75
2022-12-03T21:34:09.266Z,-0.80
2022-12-03T21:36:36.926Z,-0.78
2022-12-03T21:39:05.015Z,-0.81
2022-12-03T21:41:32.975Z,-0.72
2022-12-03T21:44:02.259Z,-0.73
2022-12-03T21:47:11.640Z,-0.73
2022-12-03T21:49:17.811Z,-0.72
2022-12-03T21:51:45.742Z,-0.75
2022-12-03T21:54:13.548Z,-0.74
2022-12-03T21:56:41.353Z,-0.68
2022-12-03T21:59:10.388Z,-0.67
2022-12-03T22:01:39.673Z,-0.68
2022-12-03T22:04:11.235Z,-0.70
2022-12-03T22:06:38.813Z,-0.65
2022-12-03T22:09:06.421Z,-0.67
2022-12-03T22:11:34.307Z,-0.68
2022-12-03T22:14:01.994Z,-0.68
2022-12-03T22:16:31.276Z,-0.66
2022-12-03T22:18:59.308Z,-0.69
2022-12-03T22:21:26.912Z,-0.69
2022-12-03T22:23:56.161Z,-0.71
2022-12-03T22:26:23.859Z,-0.70
2022-12-03T22:28:51.489Z,-0.69
2022-12-03T22:31:19.315Z,-0.69
2022-12-03T22:33:48.748Z,-0.67
2022-12-03T22:36:21.101Z,-0.65
2022-12-03T22:38:50.072Z,-0.64
2022-12-03T22:41:18.730Z,-0.70
2022-12-03T22:43:47.735Z,-0.78
2022-12-03T22:46:15.791Z,-0.73
2022-12-03T22:48:45.092Z,-0.68
2022-12-03T22:51:16.052Z,-0.73
